createdAt,value
2018-09-14T00:00:18.151Z,4.93
2018-09-14T00:01:21.663Z,5.23
2018-09-14T00:02:25.549Z,5.60
2018-09-14T00:03:29.217Z,5.23
2018-09-14T00:04:32.733Z,5.80
2018-09-14T00:05:36.509Z,5.30
2018-09-14T00:06:40.081Z,5.87
2018-09-14T00:07:43.607Z,5.37
2018-09-14T00:08:47.632Z,6.73
2018-09-14T00:09:51.300Z,4.83
2018-09-14T00:10:54.854Z,4.80
2018-09-14T00:11:59.126Z,5.40
2018-09-14T00:13:02.866Z,5.60
2018-09-14T00:14:06.501Z,5.30
2018-09-14T00:15:10.788Z,5.53
2018-09-14T00:16:14.442Z,5.60
2018-09-14T00:17:17.982Z,5.47
2018-09-14T00:18:21.565Z,5.70
2018-09-14T00:19:25.070Z,6.17
2018-09-14T00:20:28.593Z,5.60
2018-09-14T00:21:32.423Z,6.30
2018-09-14T00:22:35.965Z,6.13
2018-09-14T00:23:39.474Z,6.43
2018-09-14T00:24:43.563Z,5.53
2018-09-14T00:25:47.348Z,5.43
2018-09-14T00:26:50.876Z,6.20
2018-09-14T00:27:54.905Z,5.50
2018-09-14T00:28:58.413Z,5.80
2018-09-14T00:30:03.288Z,5.13
2018-09-14T00:31:06.853Z,5.00
2018-09-14T00:32:10.471Z,5.70
2018-09-14T00:33:13.962Z,6.10
2018-09-14T00:34:17.543Z,5.37
2018-09-14T00:35:21.057Z,5.63
2018-09-14T00:36:25.202Z,5.37
2018-09-14T00:37:29.052Z,5.30
2018-09-14T00:38:33.142Z,5.80
2018-09-14T00:39:36.656Z,6.00
2018-09-14T00:40:41.200Z,5.47
2018-09-14T00:41:44.768Z,5.80
2018-09-14T00:42:48.411Z,5.83
2018-09-14T00:43:51.933Z,6.33
2018-09-14T00:44:55.526Z,6.27
2018-09-14T00:45:59.019Z,5.80
2018-09-14T00:47:02.530Z,6.97
2018-09-14T00:48:08.113Z,6.70
2018-09-14T00:49:11.879Z,6.07
2018-09-14T00:50:15.428Z,6.83
2018-09-14T00:51:19.124Z,6.07
2018-09-14T00:52:23.378Z,6.10
2018-09-14T00:53:27.074Z,6.50
2018-09-14T00:54:30.570Z,6.90
2018-09-14T00:55:34.100Z,6.53
2018-09-14T00:56:37.586Z,6.50
2018-09-14T00:57:41.273Z,6.20
2018-09-14T00:58:44.773Z,7.43
2018-09-14T00:59:48.368Z,7.00
2018-09-14T01:00:52.245Z,6.67
2018-09-14T01:01:56.072Z,7.17
2018-09-14T01:02:59.579Z,6.70
2018-09-14T01:04:03.090Z,6.77
2018-09-14T01:05:07.906Z,6.80
2018-09-14T01:06:12.479Z,7.00
2018-09-14T01:07:17.717Z,7.30
2018-09-14T01:08:21.258Z,7.43
2018-09-14T01:09:27.429Z,7.23
2018-09-14T01:10:31.257Z,7.87
2018-09-14T01:11:34.804Z,7.17
2018-09-14T01:12:38.297Z,6.47
2018-09-14T01:13:42.269Z,6.80
2018-09-14T01:14:45.837Z,7.00
2018-09-14T01:15:50.175Z,7.23
2018-09-14T01:16:56.141Z,6.80
2018-09-14T01:18:00.089Z,7.30
2018-09-14T01:19:04.879Z,7.33
2018-09-14T01:20:09.464Z,7.33
2018-09-14T01:21:12.921Z,7.67
2018-09-14T01:22:17.357Z,7.43
2018-09-14T01:23:21.217Z,7.60
2018-09-14T01:24:25.356Z,7.50
2018-09-14T01:25:28.827Z,8.03
2018-09-14T01:26:32.350Z,7.40
2018-09-14T01:27:35.813Z,8.00
2018-09-14T01:28:39.358Z,7.30
2018-09-14T01:29:42.921Z,8.53
2018-09-14T01:30:46.688Z,8.67
2018-09-14T01:31:50.743Z,8.50
2018-09-14T01:32:54.253Z,7.90
2018-09-14T01:33:58.126Z,8.10
2018-09-14T01:35:01.741Z,7.97
2018-09-14T01:36:11.867Z,7.80
2018-09-14T01:37:15.767Z,8.40
2018-09-14T01:38:19.280Z,8.33
2018-09-14T01:39:22.839Z,8.43
2018-09-14T01:40:26.476Z,8.23
2018-09-14T01:41:30.748Z,7.63
2018-09-14T01:42:34.257Z,7.77
2018-09-14T01:43:38.048Z,8.13
2018-09-14T01:44:41.549Z,7.63
2018-09-14T01:45:45.085Z,8.03
2018-09-14T01:46:48.630Z,7.87
2018-09-14T01:47:52.219Z,7.93
2018-09-14T01:48:55.731Z,7.90
2018-09-14T01:49:59.216Z,8.00
2018-09-14T01:51:02.811Z,8.77
2018-09-14T01:52:06.449Z,9.63
2018-09-14T01:53:09.652Z,8.87
2018-09-14T01:54:13.789Z,9.37
2018-09-14T01:55:17.353Z,8.60
2018-09-14T01:56:21.458Z,8.87
2018-09-14T01:57:25.107Z,9.40
2018-09-14T01:58:28.627Z,9.03
2018-09-14T01:59:32.175Z,8.73
2018-09-14T02:00:35.664Z,9.40
2018-09-14T02:01:39.134Z,9.20
2018-09-14T02:02:42.813Z,9.43
2018-09-14T02:03:46.438Z,9.70
2018-09-14T02:04:51.609Z,8.90
2018-09-14T02:05:55.816Z,9.07
2018-09-14T02:06:59.394Z,8.37
2018-09-14T02:08:03.045Z,8.50
2018-09-14T02:09:08.853Z,8.03
2018-09-14T02:10:16.736Z,8.07
2018-09-14T02:11:20.699Z,9.07
2018-09-14T02:12:24.193Z,8.27
2018-09-14T02:13:27.736Z,8.07
2018-09-14T02:14:31.470Z,8.37
2018-09-14T02:15:35.260Z,8.73
2018-09-14T02:16:39.049Z,9.30
2018-09-14T02:17:42.543Z,8.37
2018-09-14T02:18:46.480Z,7.73
2018-09-14T02:19:50.131Z,7.93
2018-09-14T02:20:53.632Z,7.77
2018-09-14T02:21:57.160Z,8.13
2018-09-14T02:23:00.635Z,7.63
2018-09-14T02:24:04.270Z,8.20
2018-09-14T02:25:07.973Z,8.93
2018-09-14T02:26:11.531Z,8.60
2018-09-14T02:27:15.108Z,8.20
2018-09-14T02:28:18.598Z,8.57
2018-09-14T02:29:22.153Z,7.90
2018-09-14T02:30:25.669Z,7.70
2018-09-14T02:31:29.152Z,7.90
2018-09-14T02:32:32.638Z,8.17
2018-09-14T02:33:36.158Z,8.23
2018-09-14T02:34:40.331Z,8.50
2018-09-14T02:35:44.059Z,8.60
2018-09-14T02:36:47.599Z,8.07
2018-09-14T02:37:51.868Z,9.57
2018-09-14T02:38:56.206Z,8.83
2018-09-14T02:40:00.025Z,10.33
2018-09-14T02:41:03.523Z,9.67
2018-09-14T02:42:06.969Z,9.40
2018-09-14T02:43:10.488Z,10.33
2018-09-14T02:44:14.546Z,9.60
2018-09-14T02:45:19.106Z,10.20
2018-09-14T02:46:22.655Z,9.77
2018-09-14T02:47:26.189Z,10.23
2018-09-14T02:48:29.775Z,10.53
2018-09-14T02:49:33.282Z,8.67
2018-09-14T02:50:36.805Z,8.60
2018-09-14T02:51:40.930Z,8.97
2018-09-14T02:52:44.509Z,9.07
2018-09-14T02:53:48.065Z,9.53
2018-09-14T02:54:53.209Z,10.23
2018-09-14T02:55:56.853Z,10.63
2018-09-14T02:57:00.324Z,10.83
2018-09-14T02:58:03.863Z,10.63
2018-09-14T02:59:07.387Z,10.20
2018-09-14T03:00:11.551Z,10.07
2018-09-14T03:01:14.893Z,10.37
2018-09-14T03:02:18.472Z,10.47
2018-09-14T03:03:22.119Z,11.17
2018-09-14T03:04:25.574Z,10.43
2018-09-14T03:05:30.075Z,11.13
2018-09-14T03:06:33.655Z,10.77
2018-09-14T03:07:38.532Z,11.13
2018-09-14T03:08:42.162Z,11.07
2018-09-14T03:09:45.669Z,10.53
2018-09-14T03:10:49.149Z,12.00
2018-09-14T03:11:52.759Z,14.43
2018-09-14T03:12:56.269Z,13.60
2018-09-14T03:14:00.066Z,12.37
2018-09-14T03:15:03.662Z,12.97
2018-09-14T03:16:07.279Z,13.20
2018-09-14T03:17:11.275Z,11.60
2018-09-14T03:18:14.769Z,11.40
2018-09-14T03:19:18.493Z,11.53
2018-09-14T03:20:22.119Z,11.73
2018-09-14T03:21:25.611Z,12.77
2018-09-14T03:22:29.594Z,11.00
2018-09-14T03:23:33.138Z,11.60
2018-09-14T03:24:37.682Z,12.53
2018-09-14T03:25:41.211Z,11.53
2018-09-14T03:26:44.720Z,11.27
2018-09-14T03:27:48.638Z,12.00
2018-09-14T03:28:52.163Z,11.33
2018-09-14T03:29:56.118Z,11.30
2018-09-14T03:30:59.823Z,11.70
2018-09-14T03:32:03.312Z,10.70
2018-09-14T03:33:06.813Z,10.97
2018-09-14T03:34:10.382Z,11.73
2018-09-14T03:35:13.873Z,11.60
2018-09-14T03:36:17.339Z,10.63
2018-09-14T03:37:20.828Z,11.20
2018-09-14T03:38:24.379Z,11.80
2018-09-14T03:39:28.243Z,11.53
2018-09-14T03:40:31.713Z,11.63
2018-09-14T03:41:35.196Z,11.70
2018-09-14T03:42:38.798Z,10.87
2018-09-14T03:43:42.279Z,12.17
2018-09-14T03:44:46.010Z,11.37
2018-09-14T03:45:49.777Z,12.27
2018-09-14T03:46:53.980Z,10.37
2018-09-14T03:47:57.922Z,11.20
2018-09-14T03:49:01.443Z,12.43
2018-09-14T03:50:05.093Z,11.00
2018-09-14T03:51:08.596Z,11.07
2018-09-14T03:52:12.267Z,10.90
2018-09-14T03:53:15.754Z,11.23
2018-09-14T03:54:19.329Z,10.57
2018-09-14T03:55:32.749Z,11.00
2018-09-14T03:56:36.772Z,11.20
2018-09-14T03:57:40.389Z,11.97
2018-09-14T03:58:44.074Z,10.53
2018-09-14T04:01:08.205Z,12.03
2018-09-14T04:02:12.456Z,11.80
2018-09-14T04:03:15.966Z,11.03
2018-09-14T04:04:19.561Z,11.70
2018-09-14T04:05:23.595Z,11.13
2018-09-14T04:06:27.094Z,11.10
2018-09-14T04:07:31.295Z,11.90
2018-09-14T04:08:34.860Z,11.63
2018-09-14T04:09:38.336Z,11.23
2018-09-14T04:10:41.813Z,11.67
2018-09-14T04:11:45.341Z,12.30
2018-09-14T04:12:48.884Z,11.33
2018-09-14T04:13:52.384Z,11.17
2018-09-14T04:14:56.053Z,11.50
2018-09-14T04:15:59.536Z,10.77
2018-09-14T04:17:03.077Z,11.30
2018-09-14T04:18:07.167Z,11.00
2018-09-14T04:19:11.859Z,10.43
2018-09-14T04:20:15.336Z,10.80
2018-09-14T04:21:18.874Z,11.20
2018-09-14T04:22:22.583Z,11.03
2018-09-14T04:23:26.154Z,12.77
2018-09-14T04:24:29.639Z,12.23
2018-09-14T04:25:33.181Z,12.50
2018-09-14T04:26:36.667Z,12.77
2018-09-14T04:27:40.181Z,11.43
2018-09-14T04:28:44.316Z,12.30
2018-09-14T04:29:47.885Z,13.17
2018-09-14T04:30:52.269Z,13.13
2018-09-14T04:31:56.024Z,12.27
2018-09-14T04:33:00.402Z,12.30
2018-09-14T04:34:04.063Z,13.63
2018-09-14T04:35:07.577Z,13.80
2018-09-14T04:36:11.825Z,14.13
2018-09-14T04:37:15.427Z,13.33
2018-09-14T04:38:19.104Z,13.43
2018-09-14T04:39:22.916Z,12.77
2018-09-14T04:40:26.575Z,13.73
2018-09-14T04:41:30.208Z,13.77
2018-09-14T04:42:33.878Z,13.60
2018-09-14T04:43:37.869Z,13.70
2018-09-14T04:44:41.445Z,13.23
2018-09-14T04:45:45.080Z,14.00
2018-09-14T04:46:48.521Z,14.37
2018-09-14T04:47:51.986Z,13.20
2018-09-14T04:48:55.682Z,13.37
2018-09-14T04:49:59.275Z,13.37
2018-09-14T04:51:02.757Z,13.13
2018-09-14T04:52:06.454Z,11.73
2018-09-14T04:53:10.140Z,12.60
2018-09-14T04:54:14.809Z,12.23
2018-09-14T04:55:18.291Z,11.70
2018-09-14T04:56:22.777Z,12.47
2018-09-14T04:57:26.404Z,12.60
2018-09-14T04:58:29.961Z,11.63
2018-09-14T04:59:33.751Z,12.70
2018-09-14T05:00:37.309Z,12.33
2018-09-14T05:01:41.124Z,11.63
2018-09-14T05:02:45.247Z,11.80
2018-09-14T05:03:48.768Z,11.73
2018-09-14T05:04:52.294Z,11.67
2018-09-14T05:05:55.935Z,11.17
2018-09-14T05:06:59.529Z,11.83
2018-09-14T05:08:03.163Z,11.47
2018-09-14T05:09:08.023Z,10.47
2018-09-14T05:10:11.835Z,11.93
2018-09-14T05:11:15.390Z,11.10
2018-09-14T05:12:18.991Z,11.50
2018-09-14T05:13:23.081Z,11.63
2018-09-14T05:14:26.605Z,10.53
2018-09-14T05:15:31.769Z,11.47
2018-09-14T05:16:36.193Z,10.77
2018-09-14T05:17:39.845Z,10.20
2018-09-14T05:18:43.546Z,10.20
2018-09-14T05:19:47.188Z,11.67
2018-09-14T05:20:50.812Z,11.90
2018-09-14T05:21:54.380Z,10.37
2018-09-14T05:22:58.010Z,11.33
2018-09-14T05:24:01.618Z,10.33
2018-09-14T05:25:05.185Z,11.80
2018-09-14T05:26:08.752Z,11.27
2018-09-14T05:27:12.602Z,11.30
2018-09-14T05:28:16.222Z,11.43
2018-09-14T05:29:20.077Z,11.17
2018-09-14T05:30:23.764Z,12.20
2018-09-14T05:31:27.301Z,12.13
2018-09-14T05:32:30.990Z,11.20
2018-09-14T05:33:35.432Z,11.37
2018-09-14T05:34:39.746Z,11.37
2018-09-14T05:35:43.427Z,11.80
2018-09-14T05:36:48.571Z,11.30
2018-09-14T05:37:52.236Z,11.83
2018-09-14T05:38:55.733Z,11.27
2018-09-14T05:39:59.317Z,11.70
2018-09-14T05:41:03.165Z,11.33
2018-09-14T05:42:07.128Z,13.73
2018-09-14T05:43:10.785Z,13.00
2018-09-14T05:44:14.597Z,12.27
2018-09-14T05:45:18.096Z,12.13
2018-09-14T05:46:21.555Z,11.40
2018-09-14T05:47:26.090Z,10.13
2018-09-14T05:48:29.607Z,10.27
2018-09-14T05:49:33.136Z,10.47
2018-09-14T05:50:36.811Z,9.58
2018-09-14T05:51:40.912Z,9.75
2018-09-14T05:52:44.615Z,8.70
2018-09-14T05:53:48.118Z,8.63
2018-09-14T05:54:51.672Z,8.25
2018-09-14T05:55:55.774Z,8.95
2018-09-14T05:56:59.239Z,7.22
2018-09-14T05:58:02.842Z,6.90
2018-09-14T05:59:06.683Z,7.05
2018-09-14T06:00:10.207Z,6.55
2018-09-14T06:01:14.269Z,6.17
2018-09-14T06:02:17.727Z,6.08
2018-09-14T06:03:21.331Z,5.37
2018-09-14T06:04:24.855Z,6.20
2018-09-14T06:05:28.456Z,5.28
2018-09-14T06:06:32.157Z,5.58
2018-09-14T06:07:35.844Z,5.50
2018-09-14T06:08:39.386Z,5.40
2018-09-14T06:09:43.508Z,5.37
2018-09-14T06:10:46.997Z,5.17
2018-09-14T06:11:50.594Z,6.12
2018-09-14T06:12:54.265Z,5.92
2018-09-14T06:13:58.007Z,5.37
2018-09-14T06:15:01.505Z,5.00
2018-09-14T06:16:05.171Z,5.05
2018-09-14T06:17:08.761Z,5.47
2018-09-14T06:18:12.461Z,5.67
2018-09-14T06:19:15.990Z,5.30
2018-09-14T06:20:19.545Z,5.40
2018-09-14T06:21:23.729Z,5.08
2018-09-14T06:22:27.455Z,5.30
2018-09-14T06:23:31.061Z,5.70
2018-09-14T06:24:34.563Z,5.28
2018-09-14T06:25:38.243Z,4.45
2018-09-14T06:26:41.804Z,5.40
2018-09-14T06:27:45.402Z,5.55
2018-09-14T06:28:49.277Z,4.90
2018-09-14T06:29:52.882Z,5.45
2018-09-14T06:30:56.421Z,5.25
2018-09-14T06:32:00.864Z,5.25
2018-09-14T06:33:04.597Z,5.62
2018-09-14T06:34:08.235Z,5.60
2018-09-14T06:35:11.843Z,5.40
2018-09-14T06:36:15.722Z,5.05
2018-09-14T06:37:20.700Z,4.80
2018-09-14T06:38:24.342Z,5.55
2018-09-14T06:39:27.984Z,5.65
2018-09-14T06:40:31.595Z,5.97
2018-09-14T06:41:35.568Z,5.92
2018-09-14T06:42:39.780Z,6.45
2018-09-14T06:43:43.705Z,6.50
2018-09-14T06:44:47.453Z,6.10
2018-09-14T06:45:51.917Z,6.85
2018-09-14T06:46:55.544Z,7.00
2018-09-14T06:47:59.405Z,6.80
2018-09-14T06:49:04.542Z,6.45
2018-09-14T06:50:08.158Z,6.35
2018-09-14T06:51:11.721Z,6.83
2018-09-14T06:52:17.109Z,6.83
2018-09-14T06:53:20.702Z,7.30
2018-09-14T06:54:25.112Z,6.45
2018-09-14T06:55:29.315Z,6.92
2018-09-14T06:56:33.365Z,6.40
2018-09-14T06:57:38.603Z,5.95
2018-09-14T06:58:42.462Z,6.20
2018-09-14T06:59:46.128Z,5.65
2018-09-14T07:00:50.820Z,6.90
2018-09-14T07:01:55.953Z,6.20
2018-09-14T07:03:01.134Z,6.20
2018-09-14T07:04:05.718Z,5.67
2018-09-14T07:05:09.892Z,6.67
2018-09-14T07:06:14.187Z,5.97
2018-09-14T07:07:17.767Z,6.90
2018-09-14T07:08:21.276Z,6.58
2018-09-14T07:09:25.520Z,6.55
2018-09-14T07:10:29.483Z,7.08
2018-09-14T07:11:33.018Z,7.40
2018-09-14T07:12:37.645Z,7.25
2018-09-14T07:13:41.172Z,6.90
2018-09-14T07:14:45.541Z,6.87
2018-09-14T07:15:49.323Z,7.72
2018-09-14T07:16:52.982Z,6.58
2018-09-14T07:17:58.162Z,6.15
2018-09-14T07:19:01.731Z,6.95
2018-09-14T07:20:05.437Z,6.67
2018-09-14T07:21:09.759Z,7.20
2018-09-14T07:22:13.400Z,6.97
2018-09-14T07:23:16.969Z,7.05
2018-09-14T07:24:20.553Z,7.03
2018-09-14T07:25:24.086Z,6.83
2018-09-14T07:26:27.606Z,8.50
2018-09-14T07:27:31.134Z,7.60
2018-09-14T07:28:35.375Z,6.87
2018-09-14T07:29:38.904Z,6.03
2018-09-14T07:30:42.570Z,6.83
2018-09-14T07:31:46.210Z,6.92
2018-09-14T07:32:49.658Z,6.37
2018-09-14T07:33:54.288Z,8.10
2018-09-14T07:34:57.859Z,6.17
2018-09-14T07:36:02.314Z,6.97
2018-09-14T07:37:06.990Z,5.90
2018-09-14T07:38:11.136Z,8.18
2018-09-14T07:39:16.712Z,7.53
2018-09-14T07:40:20.779Z,6.80
2018-09-14T07:41:25.294Z,7.30
2018-09-14T07:42:29.184Z,7.03
2018-09-14T07:43:33.439Z,7.00
2018-09-14T07:44:37.162Z,7.45
2018-09-14T07:45:41.482Z,7.30
2018-09-14T07:46:45.552Z,7.50
2018-09-14T07:47:49.161Z,6.90
2018-09-14T07:48:52.749Z,7.40
2018-09-14T07:49:56.512Z,6.97
2018-09-14T07:51:00.262Z,7.60
2018-09-14T07:52:04.016Z,6.70
2018-09-14T07:53:07.617Z,7.47
2018-09-14T07:54:11.274Z,7.28
2018-09-14T07:55:16.352Z,6.40
2018-09-14T07:56:20.120Z,6.08
2018-09-14T07:57:24.522Z,6.75
2018-09-14T07:58:28.029Z,7.05
2018-09-14T07:59:31.524Z,7.35
2018-09-14T08:00:35.696Z,7.30
2018-09-14T08:01:40.642Z,7.17
2018-09-14T08:02:44.334Z,7.83
2018-09-14T08:03:49.215Z,8.08
2018-09-14T08:04:53.542Z,7.37
2018-09-14T08:05:57.677Z,8.03
2018-09-14T08:07:01.176Z,7.80
2018-09-14T08:08:04.761Z,6.92
2018-09-14T08:09:11.566Z,6.55
2018-09-14T08:10:15.582Z,6.58
2018-09-14T08:11:19.338Z,7.10
2018-09-14T08:12:23.023Z,7.40
2018-09-14T08:13:26.694Z,7.92
2018-09-14T08:14:30.513Z,8.90
2018-09-14T08:15:35.096Z,7.95
2018-09-14T08:16:39.437Z,8.60
2018-09-14T08:17:42.970Z,7.85
2018-09-14T08:18:47.424Z,7.65
2018-09-14T08:19:51.346Z,7.65
2018-09-14T08:20:55.591Z,6.92
2018-09-14T08:21:59.239Z,7.42
2018-09-14T08:23:02.860Z,8.25
2018-09-14T08:24:06.756Z,7.87
2018-09-14T08:25:10.571Z,8.25
2018-09-14T08:26:14.519Z,9.05
2018-09-14T08:27:18.989Z,9.55
2018-09-14T08:28:22.497Z,9.25
2018-09-14T08:29:26.187Z,9.65
2018-09-14T08:30:30.679Z,8.85
2018-09-14T08:31:34.898Z,8.15
2018-09-14T08:32:38.685Z,9.98
2018-09-14T08:33:42.978Z,9.08
2018-09-14T08:34:47.471Z,9.58
2018-09-14T08:35:51.250Z,9.00
2018-09-14T08:36:55.539Z,9.83
2018-09-14T08:37:59.173Z,9.85
2018-09-14T08:39:04.853Z,8.93
2018-09-14T08:40:09.574Z,10.68
2018-09-14T08:41:13.212Z,10.55
2018-09-14T08:42:16.853Z,9.68
2018-09-14T08:43:20.958Z,9.10
2018-09-14T08:44:24.795Z,9.10
2018-09-14T08:45:28.406Z,9.48
2018-09-14T08:46:32.362Z,8.33
2018-09-14T08:47:36.461Z,9.15
2018-09-14T08:48:40.357Z,10.03
2018-09-14T08:49:45.248Z,9.58
2018-09-14T08:50:49.383Z,9.35
2018-09-14T08:51:52.930Z,8.98
2018-09-14T08:52:57.133Z,8.55
2018-09-14T08:54:01.194Z,9.33
2018-09-14T08:55:05.678Z,9.60
2018-09-14T08:56:09.258Z,8.80
2018-09-14T08:57:12.778Z,8.50
2018-09-14T08:58:17.053Z,8.60
2018-09-14T08:59:22.970Z,8.55
2018-09-14T09:00:27.004Z,8.58
2018-09-14T09:01:30.548Z,8.93
2018-09-14T09:02:34.190Z,8.88
2018-09-14T09:03:38.284Z,8.43
2018-09-14T09:04:43.577Z,7.37
2018-09-14T09:05:47.126Z,9.30
2018-09-14T09:06:51.623Z,8.45
2018-09-14T09:07:55.148Z,8.85
2018-09-14T09:08:59.606Z,9.38
2018-09-14T09:10:03.782Z,7.92
2018-09-14T09:11:08.787Z,9.05
2018-09-14T09:12:13.087Z,8.68
2018-09-14T09:13:16.810Z,8.80
2018-09-14T09:14:21.177Z,7.60
2018-09-14T09:15:24.779Z,6.75
2018-09-14T09:16:28.395Z,8.98
2018-09-14T09:17:32.910Z,8.50
2018-09-14T09:18:36.568Z,8.15
2018-09-14T09:19:41.933Z,8.50
2018-09-14T09:20:45.464Z,7.85
2018-09-14T09:21:49.458Z,9.20
2018-09-14T09:22:53.727Z,8.25
2018-09-14T09:23:58.164Z,8.78
2018-09-14T09:25:02.446Z,9.58
2018-09-14T09:26:07.402Z,8.93
2018-09-14T09:27:11.598Z,8.85
2018-09-14T09:28:15.264Z,7.00
2018-09-14T09:29:19.601Z,7.97
2018-09-14T09:30:23.862Z,8.30
2018-09-14T09:31:27.960Z,8.40
2018-09-14T09:32:31.707Z,8.13
2018-09-14T09:33:35.195Z,7.87
2018-09-14T09:34:39.339Z,8.90
2018-09-14T09:35:44.051Z,10.35
2018-09-14T09:36:48.367Z,9.35
2018-09-14T09:37:51.952Z,9.53
2018-09-14T09:38:55.682Z,9.73
2018-09-14T09:39:59.189Z,10.53
2018-09-14T09:41:03.836Z,9.63
2018-09-14T09:42:07.789Z,9.95
2018-09-14T09:43:11.496Z,10.88
2018-09-14T09:44:15.407Z,10.23
2018-09-14T09:45:19.729Z,9.90
2018-09-14T09:46:23.215Z,10.13
2018-09-14T09:47:26.842Z,10.45
2018-09-14T09:48:30.474Z,10.45
2018-09-14T09:49:35.497Z,10.18
2018-09-14T09:50:41.127Z,9.70
2018-09-14T09:51:45.354Z,8.73
2018-09-14T09:52:49.017Z,7.92
2018-09-14T09:53:53.259Z,8.95
2018-09-14T09:54:56.938Z,8.70
2018-09-14T09:56:01.142Z,9.20
2018-09-14T09:57:04.707Z,9.30
2018-09-14T09:58:09.263Z,9.95
2018-09-14T09:59:12.838Z,7.72
2018-09-14T10:00:21.701Z,7.92
2018-09-14T10:01:30.660Z,7.87
2018-09-14T10:02:37.536Z,7.30
2018-09-14T10:03:43.217Z,7.17
2018-09-14T10:04:52.794Z,5.75
2018-09-14T10:05:57.270Z,7.62
2018-09-14T10:07:00.767Z,6.00
2018-09-14T10:08:04.285Z,6.60
2018-09-14T10:09:09.384Z,6.08
2018-09-14T10:10:13.524Z,7.08
2018-09-14T10:11:17.614Z,7.25
2018-09-14T10:12:23.229Z,7.10
2018-09-14T10:13:27.269Z,8.10
2018-09-14T10:14:32.357Z,8.73
2018-09-14T10:15:36.036Z,9.90
2018-09-14T10:16:39.539Z,7.62
2018-09-14T10:17:43.150Z,7.30
2018-09-14T10:18:46.733Z,8.28
2018-09-14T10:19:50.354Z,9.73
2018-09-14T10:20:54.618Z,9.08
2018-09-14T10:21:58.177Z,9.25
2018-09-14T10:23:02.244Z,8.15
2018-09-14T10:24:06.935Z,8.75
2018-09-14T10:25:10.714Z,9.48
2018-09-14T10:26:14.536Z,8.70
2018-09-14T10:27:18.135Z,8.50
2018-09-14T10:28:24.426Z,8.40
2018-09-14T10:29:29.034Z,7.15
2018-09-14T10:30:33.655Z,8.20
2018-09-14T10:31:37.255Z,5.42
2018-09-14T10:32:41.877Z,6.62
2018-09-14T10:33:46.463Z,5.87
2018-09-14T10:34:50.717Z,7.75
2018-09-14T10:35:54.315Z,4.70
2018-09-14T10:36:57.992Z,5.60
2018-09-14T10:38:01.481Z,6.40
2018-09-14T10:39:08.223Z,7.05
2018-09-14T10:40:12.404Z,6.70
2018-09-14T10:41:17.016Z,6.67
2018-09-14T10:42:20.558Z,6.97
2018-09-14T10:43:24.159Z,6.62
2018-09-14T10:44:27.771Z,7.17
2018-09-14T10:45:31.443Z,6.90
2018-09-14T10:46:36.224Z,6.42
2018-09-14T10:47:39.798Z,5.97
2018-09-14T10:48:43.480Z,6.30
2018-09-14T10:49:46.954Z,4.75
2018-09-14T10:50:50.726Z,5.30
2018-09-14T10:51:54.321Z,4.83
2018-09-14T10:52:58.068Z,4.97
2018-09-14T10:54:01.811Z,5.80
2018-09-14T10:55:05.393Z,4.85
2018-09-14T10:56:09.024Z,5.40
2018-09-14T10:57:13.569Z,4.80
2018-09-14T10:58:17.209Z,6.22
2018-09-14T10:59:20.801Z,5.50
2018-09-14T11:00:24.612Z,4.58
2018-09-14T11:01:28.234Z,5.08
2018-09-14T11:02:31.766Z,4.47
2018-09-14T11:03:35.407Z,4.28
2018-09-14T11:04:38.980Z,5.08
2018-09-14T11:05:42.601Z,6.03
2018-09-14T11:06:46.272Z,6.17
2018-09-14T11:07:49.886Z,6.03
2018-09-14T11:08:53.494Z,5.20
2018-09-14T11:09:57.185Z,8.20
2018-09-14T11:11:01.371Z,5.78
2018-09-14T11:12:04.965Z,5.37
2018-09-14T11:13:08.689Z,5.78
2018-09-14T11:14:12.838Z,6.17
2018-09-14T11:15:16.507Z,6.20
2018-09-14T11:16:20.043Z,7.25
2018-09-14T11:17:23.678Z,7.95
2018-09-14T11:18:27.519Z,8.85
2018-09-14T11:19:31.038Z,6.80
2018-09-14T11:20:34.715Z,7.12
2018-09-14T11:21:38.286Z,6.25
2018-09-14T11:22:41.874Z,5.83
2018-09-14T11:23:45.538Z,6.45
2018-09-14T11:24:49.269Z,6.55
2018-09-14T11:25:52.731Z,6.72
2018-09-14T11:26:56.390Z,7.95
2018-09-14T11:27:59.995Z,8.03
2018-09-14T11:29:03.696Z,7.90
2018-09-14T11:30:08.250Z,6.47
2018-09-14T11:31:12.850Z,6.67
2018-09-14T11:32:16.484Z,7.33
2018-09-14T11:33:20.021Z,7.92
2018-09-14T11:34:23.951Z,6.78
2018-09-14T11:35:28.478Z,7.47
2018-09-14T11:36:32.147Z,7.10
2018-09-14T11:37:35.707Z,5.85
2018-09-14T11:38:39.446Z,6.50
2018-09-14T11:39:42.951Z,6.40
2018-09-14T11:40:46.697Z,6.87
2018-09-14T11:41:50.265Z,7.12
2018-09-14T11:42:53.794Z,6.55
2018-09-14T11:43:57.423Z,6.72
2018-09-14T11:45:01.095Z,5.67
2018-09-14T11:46:04.805Z,7.97
2018-09-14T11:47:08.474Z,8.23
2018-09-14T11:48:12.709Z,7.53
2018-09-14T11:49:16.286Z,7.83
2018-09-14T11:50:19.963Z,6.58
2018-09-14T11:51:23.850Z,6.97
2018-09-14T11:52:27.465Z,6.80
2018-09-14T11:53:31.141Z,7.28
2018-09-14T11:54:34.803Z,6.72
2018-09-14T11:55:38.559Z,6.78
2018-09-14T11:56:42.115Z,7.55
2018-09-14T11:57:45.878Z,7.25
2018-09-14T11:58:49.549Z,8.58
2018-09-14T11:59:53.208Z,7.35
2018-09-14T12:00:56.898Z,7.70
2018-09-14T12:02:00.849Z,7.28
2018-09-14T12:03:04.522Z,7.55
2018-09-14T12:04:08.356Z,7.62
2018-09-14T12:05:12.538Z,7.83
2018-09-14T12:06:16.147Z,7.75
2018-09-14T12:07:19.736Z,7.10
2018-09-14T12:08:23.587Z,6.72
2018-09-14T12:09:27.349Z,6.87
2018-09-14T12:10:30.987Z,6.90
2018-09-14T12:11:34.599Z,7.00
2018-09-14T12:12:38.163Z,7.90
2018-09-14T12:13:41.837Z,8.40
2018-09-14T12:14:45.446Z,8.05
2018-09-14T12:15:49.054Z,6.92
2018-09-14T12:16:52.689Z,6.85
2018-09-14T12:17:56.271Z,5.25
2018-09-14T12:18:59.868Z,5.45
2018-09-14T12:20:03.523Z,6.92
2018-09-14T12:21:07.161Z,6.50
2018-09-14T12:22:11.267Z,6.20
2018-09-14T12:23:14.969Z,7.78
2018-09-14T12:24:18.619Z,7.10
2018-09-14T12:25:22.241Z,7.15
2018-09-14T12:26:26.392Z,7.90
2018-09-14T12:27:30.079Z,6.97
2018-09-14T12:28:33.717Z,6.58
2018-09-14T12:29:38.915Z,6.55
2018-09-14T12:30:42.542Z,7.53
2018-09-14T12:31:46.134Z,6.65
2018-09-14T12:32:49.735Z,6.62
2018-09-14T12:33:53.378Z,7.55
2018-09-14T12:34:56.908Z,7.60
2018-09-14T12:36:00.587Z,7.80
2018-09-14T12:37:04.295Z,6.58
2018-09-14T12:38:08.074Z,7.28
2018-09-14T12:39:12.056Z,6.22
2018-09-14T12:40:15.642Z,8.48
2018-09-14T12:41:19.226Z,9.65
2018-09-14T12:42:22.793Z,8.78
2018-09-14T12:43:26.386Z,9.10
2018-09-14T12:44:30.011Z,8.28
2018-09-14T12:45:33.587Z,7.90
2018-09-14T12:46:37.625Z,8.18
2018-09-14T12:47:41.263Z,7.42
2018-09-14T12:48:44.890Z,8.45
2018-09-14T12:49:48.517Z,7.55
2018-09-14T12:50:52.186Z,9.00
2018-09-14T12:51:55.885Z,8.93
2018-09-14T12:53:00.432Z,9.55
2018-09-14T12:54:04.050Z,9.85
2018-09-14T12:55:07.712Z,9.48
2018-09-14T12:56:11.641Z,9.00
2018-09-14T12:57:15.391Z,8.58
2018-09-14T12:58:18.998Z,8.13
2018-09-14T12:59:35.438Z,8.63
2018-09-14T13:00:40.021Z,9.50
2018-09-14T13:01:44.400Z,11.28
2018-09-14T13:02:48.752Z,11.60
2018-09-14T13:03:52.584Z,9.00
2018-09-14T13:04:56.130Z,8.83
2018-09-14T13:06:00.247Z,9.75
2018-09-14T13:07:03.839Z,9.05
2018-09-14T13:08:07.390Z,10.28
2018-09-14T13:09:12.882Z,9.00
2018-09-14T13:10:16.434Z,8.88
2018-09-14T13:11:20.024Z,9.33
2018-09-14T13:12:24.524Z,8.75
2018-09-14T13:13:28.124Z,8.85
2018-09-14T13:14:32.037Z,8.90
2018-09-14T13:15:36.852Z,8.08
2018-09-14T13:16:41.540Z,8.90
2018-09-14T13:17:45.233Z,8.45
2018-09-14T13:18:49.365Z,7.97
2018-09-14T13:19:54.659Z,7.83
2018-09-14T13:20:58.518Z,9.83
2018-09-14T13:22:02.073Z,10.03
2018-09-14T13:23:06.361Z,9.45
2018-09-14T13:24:10.060Z,9.90
2018-09-14T13:25:14.857Z,9.55
2018-09-14T13:26:18.613Z,9.73
2018-09-14T13:27:22.326Z,9.28
2018-09-14T13:28:26.677Z,9.13
2018-09-14T13:29:30.264Z,8.78
2018-09-14T13:30:35.269Z,8.78
2018-09-14T13:31:39.662Z,9.13
2018-09-14T13:32:45.972Z,8.58
2018-09-14T13:33:51.906Z,9.68
2018-09-14T13:34:55.838Z,8.23
2018-09-14T13:35:59.398Z,9.43
2018-09-14T13:37:03.754Z,9.18
2018-09-14T13:38:07.804Z,9.68
2018-09-14T13:39:12.084Z,8.40
2018-09-14T13:40:16.049Z,8.13
2018-09-14T13:41:19.776Z,9.15
2018-09-14T13:42:23.493Z,9.88
2018-09-14T13:43:27.902Z,8.95
2018-09-14T13:44:31.485Z,8.35
2018-09-14T13:45:36.701Z,9.03
2018-09-14T13:46:40.548Z,9.35
2018-09-14T13:47:44.383Z,8.75
2018-09-14T13:48:48.294Z,8.38
2018-09-14T13:49:52.282Z,8.70
2018-09-14T13:50:56.126Z,9.45
2018-09-14T13:51:59.625Z,9.95
2018-09-14T13:53:03.271Z,10.40
2018-09-14T13:54:07.014Z,9.23
2018-09-14T13:55:11.444Z,10.20
2018-09-14T13:56:16.121Z,8.88
2018-09-14T13:57:19.910Z,9.20
2018-09-14T13:58:23.915Z,9.73
2018-09-14T13:59:28.255Z,9.30
2018-09-14T14:00:32.352Z,9.65
2018-09-14T14:01:36.805Z,9.95
2018-09-14T14:02:40.661Z,10.30
2018-09-14T14:03:45.322Z,9.73
2018-09-14T14:04:48.971Z,9.93
2018-09-14T14:05:54.170Z,9.95